Time;durP1;ratioP1;P1;durP2;ratioP2;P2;SDS_P1;SDS_P2;PMS_P1;PMS_P2;Temp;Humidity;BMP_temperature;BMP_pressure;BME280_temperature;BME280_humidity;BME280_pressure;Samples;Min_cycle;Max_cycle;Signal;HPM_P1;HPM_P2
2022/07/07 00:01:07;;;;;;;;;;;10.50;99.90;;;;;;5070202;28;20171;-75
2022/07/07 00:03:32;;;;;;;;;;;10.50;99.90;;;;;;5070940;28;19931;-75
2022/07/07 00:05:58;;;;;;;;;;;10.40;99.90;;;;;;5071675;28;19917;-75
2022/07/07 00:08:24;;;;;;;;;;;10.40;99.90;;;;;;5071676;28;19987;-75
2022/07/07 00:10:49;;;;;;;;;;;10.40;99.90;;;;;;5065245;28;20230;-76
2022/07/07 00:13:15;;;;;;;;;;;10.40;99.90;;;;;;5070337;28;19999;-75
2022/07/07 00:15:42;;;;;;;;;;;10.40;99.90;;;;;;5071804;28;19915;-75
2022/07/07 00:18:08;;;;;;;;;;;10.40;99.90;;;;;;5071130;28;19908;-74
2022/07/07 00:20:33;;;;;;;;;;;10.30;99.90;;;;;;5071350;28;19916;-75
2022/07/07 00:22:58;;;;;;;;;;;10.40;99.90;;;;;;5070718;28;19913;-75
2022/07/07 00:25:24;;;;;;;;;;;10.20;99.90;;;;;;5070781;28;20319;-75
2022/07/07 00:27:49;;;;;;;;;;;10.20;99.90;;;;;;5071449;28;19947;-75
2022/07/07 00:30:15;;;;;;;;;;;10.00;99.90;;;;;;5071453;28;19908;-75
2022/07/07 00:32:41;;;;;;;;;;;10.00;99.90;;;;;;5070642;28;20328;-75
2022/07/07 00:35:06;;;;;;;;;;;10.00;99.90;;;;;;5075032;28;19909;-74
2022/07/07 00:37:32;;;;;;;;;;;10.00;99.90;;;;;;5076356;28;20376;-74
2022/07/07 00:39:57;;;;;;;;;;;10.00;99.90;;;;;;5071429;28;19916;-75
2022/07/07 00:42:23;;;;;;;;;;;10.00;99.90;;;;;;5071032;28;19958;-75
2022/07/07 00:44:48;;;;;;;;;;;9.90;99.90;;;;;;5070554;28;20366;-75
2022/07/07 00:47:14;;;;;;;;;;;10.00;99.90;;;;;;5070844;28;19909;-75
2022/07/07 00:49:41;;;;;;;;;;;10.10;99.90;;;;;;5071009;28;19912;-75
2022/07/07 00:52:07;;;;;;;;;;;10.20;99.90;;;;;;5069346;28;20384;-75
2022/07/07 00:54:33;;;;;;;;;;;10.20;99.90;;;;;;5070584;28;20145;-74
2022/07/07 00:56:59;;;;;;;;;;;10.30;99.90;;;;;;5074202;28;19909;-75
2022/07/07 00:59:24;;;;;;;;;;;10.30;99.90;;;;;;5075371;28;19970;-75
2022/07/07 01:01:50;;;;;;;;;;;10.40;99.90;;;;;;5074630;28;19908;-75
2022/07/07 01:04:17;;;;;;;;;;;10.50;99.90;;;;;;5071645;28;19916;-75
2022/07/07 01:06:42;;;;;;;;;;;10.60;99.90;;;;;;5074665;28;20305;-75
2022/07/07 01:09:09;;;;;;;;;;;10.80;99.90;;;;;;5075222;28;19909;-75
2022/07/07 01:11:47;;;;;;;;;;;10.90;99.90;;;;;;5074600;28;19916;-75
2022/07/07 01:14:13;;;;;;;;;;;11.00;99.90;;;;;;5074349;28;19912;-75
2022/07/07 01:16:39;;;;;;;;;;;10.90;99.90;;;;;;5074996;28;19962;-75
2022/07/07 01:19:05;;;;;;;;;;;11.00;99.90;;;;;;5074765;28;19915;-75
2022/07/07 01:21:32;;;;;;;;;;;11.00;99.90;;;;;;5074481;28;20386;-75
2022/07/07 01:23:57;;;;;;;;;;;11.00;99.90;;;;;;5072744;28;20373;-75
2022/07/07 01:26:23;;;;;;;;;;;11.00;99.90;;;;;;5072484;28;19912;-75
2022/07/07 01:28:48;;;;;;;;;;;11.00;99.90;;;;;;5071266;28;19908;-75
2022/07/07 01:31:14;;;;;;;;;;;11.10;99.90;;;;;;5074069;28;19952;-75
2022/07/07 01:33:39;;;;;;;;;;;11.10;99.90;;;;;;5073945;28;19908;-75
2022/07/07 01:36:05;;;;;;;;;;;11.10;99.90;;;;;;5074795;28;19939;-75
2022/07/07 01:38:30;;;;;;;;;;;11.20;99.90;;;;;;5074646;28;19915;-75
2022/07/07 01:40:56;;;;;;;;;;;11.20;99.90;;;;;;5074671;28;19995;-75
2022/07/07 01:43:21;;;;;;;;;;;11.40;99.90;;;;;;5073461;28;19912;-75
2022/07/07 01:45:47;;;;;;;;;;;11.40;99.90;;;;;;5074394;28;20004;-75
2022/07/07 01:48:13;;;;;;;;;;;11.40;99.90;;;;;;5074395;28;20309;-75
2022/07/07 01:50:38;;;;;;;;;;;11.40;99.90;;;;;;5074190;28;19920;-75
2022/07/07 01:53:04;;;;;;;;;;;11.40;99.90;;;;;;5072436;28;19966;-75
2022/07/07 01:55:29;;;;;;;;;;;11.30;99.90;;;;;;5074202;28;19930;-75
2022/07/07 01:57:55;;;;;;;;;;;11.20;99.90;;;;;;5071902;28;19961;-75
2022/07/07 02:00:20;;;;;;;;;;;11.10;99.90;;;;;;5073698;28;19916;-75
2022/07/07 02:02:46;;;;;;;;;;;11.10;99.90;;;;;;5072827;28;20175;-75
2022/07/07 02:05:11;;;;;;;;;;;11.20;99.90;;;;;;5073378;28;20003;-75
2022/07/07 02:07:37;;;;;;;;;;;11.20;99.90;;;;;;5072932;28;19913;-75
2022/07/07 02:10:03;;;;;;;;;;;11.10;99.90;;;;;;5074376;28;19912;-75
2022/07/07 02:12:29;;;;;;;;;;;11.00;99.90;;;;;;5073429;28;20427;-75
2022/07/07 02:14:54;;;;;;;;;;;10.90;99.90;;;;;;5072987;28;19951;-75
2022/07/07 02:17:20;;;;;;;;;;;11.00;99.90;;;;;;5073808;28;19915;-76
2022/07/07 02:19:45;;;;;;;;;;;11.00;99.90;;;;;;5072223;28;20007;-76
2022/07/07 02:22:11;;;;;;;;;;;11.00;99.90;;;;;;5073377;28;19912;-76
2022/07/07 02:24:36;;;;;;;;;;;11.00;99.90;;;;;;5073267;28;20208;-76
2022/07/07 02:27:02;;;;;;;;;;;11.00;99.90;;;;;;5072640;28;19917;-76
2022/07/07 02:29:27;;;;;;;;;;;11.00;99.90;;;;;;5072293;28;20274;-76
2022/07/07 02:31:53;;;;;;;;;;;11.00;99.90;;;;;;5073493;28;19961;-76
2022/07/07 02:34:20;;;;;;;;;;;11.10;99.90;;;;;;5072654;28;19912;-76
2022/07/07 02:36:45;;;;;;;;;;;11.10;99.90;;;;;;5073542;28;19948;-76
2022/07/07 02:39:11;;;;;;;;;;;11.10;99.90;;;;;;5072142;28;19916;-76
2022/07/07 02:41:36;;;;;;;;;;;11.20;99.90;;;;;;5071548;28;19913;-76
2022/07/07 02:44:02;;;;;;;;;;;11.30;99.90;;;;;;5072642;28;19912;-76
2022/07/07 02:46:28;;;;;;;;;;;11.40;99.90;;;;;;5073057;28;19912;-76
2022/07/07 02:48:53;;;;;;;;;;;11.40;99.90;;;;;;5071989;28;20030;-76
2022/07/07 02:51:19;;;;;;;;;;;11.40;99.90;;;;;;5072546;28;20388;-76
2022/07/07 02:53:44;;;;;;;;;;;11.40;99.90;;;;;;5066280;28;19997;-76
2022/07/07 02:56:10;;;;;;;;;;;11.40;99.90;;;;;;5073069;28;19908;-76
2022/07/07 02:58:36;;;;;;;;;;;11.40;99.90;;;;;;5072700;28;19909;-75
2022/07/07 03:01:01;;;;;;;;;;;11.40;99.90;;;;;;5072707;28;20064;-76
2022/07/07 03:03:26;;;;;;;;;;;11.40;99.90;;;;;;5071752;28;19956;-76
2022/07/07 03:05:52;;;;;;;;;;;11.50;99.90;;;;;;5069636;28;19917;-75
2022/07/07 03:08:17;;;;;;;;;;;11.50;99.90;;;;;;5072579;28;20129;-76
2022/07/07 03:10:43;;;;;;;;;;;11.60;99.90;;;;;;5071476;28;19916;-76
2022/07/07 03:13:08;;;;;;;;;;;11.50;99.90;;;;;;5072155;28;19908;-76
2022/07/07 03:15:34;;;;;;;;;;;11.50;99.90;;;;;;5072705;28;20403;-76
2022/07/07 03:17:59;;;;;;;;;;;11.60;99.90;;;;;;5072491;28;20400;-76
2022/07/07 03:20:25;;;;;;;;;;;11.60;99.90;;;;;;5072018;28;20007;-76
2022/07/07 03:22:50;;;;;;;;;;;11.60;99.90;;;;;;5070646;28;19908;-76
2022/07/07 03:25:17;;;;;;;;;;;11.40;99.90;;;;;;5072037;28;20280;-76
2022/07/07 03:27:42;;;;;;;;;;;11.30;99.90;;;;;;5072585;28;19913;-76
2022/07/07 03:30:08;;;;;;;;;;;11.30;99.90;;;;;;5071068;28;19913;-76
2022/07/07 03:32:34;;;;;;;;;;;11.10;99.90;;;;;;5071701;28;20001;-76
2022/07/07 03:35:00;;;;;;;;;;;11.10;99.90;;;;;;5068241;28;19975;-76
2022/07/07 03:37:25;;;;;;;;;;;11.00;99.90;;;;;;5072070;28;20383;-76
2022/07/07 03:39:51;;;;;;;;;;;11.10;99.90;;;;;;5072337;28;19916;-76
2022/07/07 03:42:17;;;;;;;;;;;11.20;99.90;;;;;;5072184;28;20244;-76
2022/07/07 03:44:42;;;;;;;;;;;11.20;99.90;;;;;;5071412;28;19912;-76
2022/07/07 03:47:08;;;;;;;;;;;11.20;99.90;;;;;;5070564;28;19916;-76
2022/07/07 03:49:33;;;;;;;;;;;11.20;99.90;;;;;;5071723;28;19915;-76
2022/07/07 03:51:59;;;;;;;;;;;11.30;99.90;;;;;;5071605;28;19908;-76
2022/07/07 03:54:24;;;;;;;;;;;11.30;99.90;;;;;;5071276;28;20335;-76
2022/07/07 03:56:50;;;;;;;;;;;11.40;99.90;;;;;;5070398;28;19908;-76
2022/07/07 03:59:15;;;;;;;;;;;11.60;99.90;;;;;;5071565;28;19916;-76
2022/07/07 04:01:45;;;;;;;;;;;11.70;99.90;;;;;;5071303;28;20656;-76
2022/07/07 04:04:11;;;;;;;;;;;11.80;99.90;;;;;;5052007;28;19909;-76
2022/07/07 04:06:37;;;;;;;;;;;11.90;99.90;;;;;;5071088;28;19913;-75
2022/07/07 04:09:02;;;;;;;;;;;11.90;99.90;;;;;;5071465;28;19981;-76
2022/07/07 04:11:28;;;;;;;;;;;11.90;99.90;;;;;;5071065;28;19908;-75
2022/07/07 04:13:53;;;;;;;;;;;11.90;99.90;;;;;;5070754;28;20495;-76
2022/07/07 04:16:18;;;;;;;;;;;11.90;99.90;;;;;;5071407;28;19909;-76
2022/07/07 04:18:44;;;;;;;;;;;12.00;99.90;;;;;;5071522;28;19916;-76
2022/07/07 04:21:09;;;;;;;;;;;12.10;99.90;;;;;;5071238;28;19908;-76
2022/07/07 04:23:35;;;;;;;;;;;12.20;99.90;;;;;;5070353;28;19923;-76
2022/07/07 04:26:00;;;;;;;;;;;12.50;99.90;;;;;;5071202;28;19913;-76
2022/07/07 04:28:26;;;;;;;;;;;12.60;99.90;;;;;;5071441;28;19995;-76
2022/07/07 04:30:51;;;;;;;;;;;12.60;99.90;;;;;;5070679;28;20242;-76
2022/07/07 04:33:17;;;;;;;;;;;12.70;99.90;;;;;;5070350;28;19909;-76
2022/07/07 04:35:43;;;;;;;;;;;12.70;99.90;;;;;;5069015;28;19943;-76
2022/07/07 04:38:08;;;;;;;;;;;12.70;99.90;;;;;;5071028;28;20327;-76
2022/07/07 04:40:34;;;;;;;;;;;12.70;99.90;;;;;;5071601;28;19908;-76
2022/07/07 04:42:59;;;;;;;;;;;12.80;99.90;;;;;;5069358;28;19995;-76
2022/07/07 04:45:24;;;;;;;;;;;12.80;99.90;;;;;;5070462;28;19989;-76
2022/07/07 04:47:50;;;;;;;;;;;12.90;99.90;;;;;;5069778;28;19915;-76
2022/07/07 04:50:15;;;;;;;;;;;12.90;99.90;;;;;;5070801;28;20011;-76
2022/07/07 04:52:41;;;;;;;;;;;12.90;99.90;;;;;;5070590;28;19991;-76
2022/07/07 04:55:07;;;;;;;;;;;12.90;99.90;;;;;;5070094;28;19908;-76
2022/07/07 04:57:33;;;;;;;;;;;12.80;99.90;;;;;;5070936;28;20403;-76
2022/07/07 04:59:58;;;;;;;;;;;12.80;99.90;;;;;;5070594;28;19915;-76
2022/07/07 05:02:24;;;;;;;;;;;12.70;99.90;;;;;;5069059;28;19955;-76
2022/07/07 05:04:50;;;;;;;;;;;12.60;99.90;;;;;;5067349;28;20301;-76
2022/07/07 05:07:15;;;;;;;;;;;12.50;99.90;;;;;;5069135;28;20013;-79
2022/07/07 05:09:41;;;;;;;;;;;12.50;99.90;;;;;;5070781;28;19909;-76
2022/07/07 05:12:07;;;;;;;;;;;12.60;99.90;;;;;;5070460;28;19959;-76
2022/07/07 05:14:32;;;;;;;;;;;12.80;99.90;;;;;;5070103;28;19912;-76
2022/07/07 05:16:59;;;;;;;;;;;13.10;99.90;;;;;;5069432;28;19908;-77
2022/07/07 05:19:25;;;;;;;;;;;13.40;99.90;;;;;;5070701;28;20285;-76
2022/07/07 05:21:51;;;;;;;;;;;13.30;99.90;;;;;;5070365;28;19915;-76
2022/07/07 05:24:16;;;;;;;;;;;13.30;99.90;;;;;;5070118;28;20010;-76
2022/07/07 05:26:42;;;;;;;;;;;13.30;99.90;;;;;;5070553;28;19920;-77
2022/07/07 05:29:07;;;;;;;;;;;13.30;99.90;;;;;;5070693;28;19909;-77
2022/07/07 05:31:33;;;;;;;;;;;13.30;99.90;;;;;;5070375;28;19912;-77
2022/07/07 05:33:58;;;;;;;;;;;13.20;99.90;;;;;;5068113;28;19909;-76
2022/07/07 05:36:24;;;;;;;;;;;13.20;99.90;;;;;;5070382;28;19908;-76
2022/07/07 05:38:50;;;;;;;;;;;13.10;99.90;;;;;;5070489;28;19948;-76
2022/07/07 05:41:16;;;;;;;;;;;13.00;99.90;;;;;;5070235;28;19908;-76
2022/07/07 05:43:42;;;;;;;;;;;13.10;99.90;;;;;;5073397;28;19913;-77
2022/07/07 05:46:07;;;;;;;;;;;13.40;99.90;;;;;;5074251;28;19919;-77
2022/07/07 05:48:33;;;;;;;;;;;13.60;99.90;;;;;;5074245;28;20071;-75
2022/07/07 05:50:58;;;;;;;;;;;13.70;99.90;;;;;;5074042;28;20345;-75
2022/07/07 05:53:24;;;;;;;;;;;14.20;99.90;;;;;;5070925;28;19917;-76
2022/07/07 05:55:49;;;;;;;;;;;14.20;99.90;;;;;;5072672;28;20324;-76
2022/07/07 05:58:15;;;;;;;;;;;14.70;99.90;;;;;;5073939;28;20010;-76
2022/07/07 06:00:40;;;;;;;;;;;15.00;99.90;;;;;;5072382;28;19962;-76
2022/07/07 06:03:06;;;;;;;;;;;15.30;99.90;;;;;;5072764;28;20000;-76
2022/07/07 06:05:32;;;;;;;;;;;17.00;99.90;;;;;;5071544;28;19963;-76
2022/07/07 06:07:57;;;;;;;;;;;17.10;99.90;;;;;;5073728;28;19912;-76
2022/07/07 06:10:23;;;;;;;;;;;16.00;99.90;;;;;;5072395;28;19947;-75
2022/07/07 06:12:49;;;;;;;;;;;15.60;99.90;;;;;;5073223;28;20324;-75
2022/07/07 06:15:16;;;;;;;;;;;15.50;99.90;;;;;;5073261;28;19912;-75
2022/07/07 06:17:42;;;;;;;;;;;15.50;99.90;;;;;;5073784;28;20389;-75
2022/07/07 06:20:08;;;;;;;;;;;16.10;99.90;;;;;;5068724;28;19916;-75
2022/07/07 06:22:33;;;;;;;;;;;16.10;99.90;;;;;;5070418;28;19909;-76
2022/07/07 06:24:59;;;;;;;;;;;16.50;99.90;;;;;;5070834;28;19912;-74
2022/07/07 06:27:25;;;;;;;;;;;16.30;99.90;;;;;;5072302;28;19913;-75
2022/07/07 06:29:51;;;;;;;;;;;17.20;99.90;;;;;;5061246;28;19917;-75
2022/07/07 06:32:16;;;;;;;;;;;18.10;99.90;;;;;;5069488;28;20042;-75
2022/07/07 06:34:42;;;;;;;;;;;19.10;97.80;;;;;;5070412;28;19956;-76
2022/07/07 06:37:08;;;;;;;;;;;19.30;96.80;;;;;;5072544;28;19908;-75
2022/07/07 06:39:33;;;;;;;;;;;19.20;97.90;;;;;;5072814;28;20372;-76
2022/07/07 06:41:59;;;;;;;;;;;17.80;98.80;;;;;;5072615;28;19924;-75
2022/07/07 06:44:30;;;;;;;;;;;18.10;99.50;;;;;;5072364;28;19912;-76
2022/07/07 06:46:59;;;;;;;;;;;19.70;96.40;;;;;;5071545;28;20400;-76
2022/07/07 06:49:25;;;;;;;;;;;20.30;93.50;;;;;;5072718;28;19962;-76
2022/07/07 06:51:51;;;;;;;;;;;20.80;93.90;;;;;;5068901;28;20358;-75
2022/07/07 06:54:16;;;;;;;;;;;20.70;93.20;;;;;;5067658;28;19916;-75
2022/07/07 06:56:42;;;;;;;;;;;19.30;93.50;;;;;;5072263;28;19948;-75
2022/07/07 06:59:07;;;;;;;;;;;19.30;94.10;;;;;;5072397;28;20269;-75
2022/07/07 07:01:33;;;;;;;;;;;20.20;93.20;;;;;;5071962;28;19913;-75
2022/07/07 07:03:58;;;;;;;;;;;19.10;93.90;;;;;;5069093;28;19908;-75
2022/07/07 07:06:25;;;;;;;;;;;18.40;94.50;;;;;;5072070;28;19981;-75
2022/07/07 07:08:51;;;;;;;;;;;18.20;96.30;;;;;;5073174;28;20292;-76
2022/07/07 07:11:16;;;;;;;;;;;18.70;95.70;;;;;;5071733;28;19914;-75
2022/07/07 07:13:42;;;;;;;;;;;20.20;94.50;;;;;;5072054;28;19970;-76
2022/07/07 07:16:07;;;;;;;;;;;20.90;93.80;;;;;;5072672;28;19912;-76
2022/07/07 07:18:33;;;;;;;;;;;22.30;91.00;;;;;;5072404;28;19912;-76
2022/07/07 07:20:58;;;;;;;;;;;23.00;90.60;;;;;;5071686;28;19913;-76
2022/07/07 07:23:24;;;;;;;;;;;21.40;90.90;;;;;;5069841;28;20549;-75
2022/07/07 07:25:50;;;;;;;;;;;20.20;92.80;;;;;;5068858;28;19920;-76
2022/07/07 07:28:16;;;;;;;;;;;19.50;93.20;;;;;;5072199;28;20082;-76
2022/07/07 07:30:41;;;;;;;;;;;19.40;93.50;;;;;;5071989;28;20281;-75
2022/07/07 07:33:07;;;;;;;;;;;19.40;93.60;;;;;;5070996;28;20332;-75
2022/07/07 07:35:32;;;;;;;;;;;19.40;93.70;;;;;;5071439;28;20007;-75
2022/07/07 07:37:58;;;;;;;;;;;19.50;94.90;;;;;;5071780;28;20362;-76
2022/07/07 07:40:23;;;;;;;;;;;20.10;93.70;;;;;;5070080;28;20011;-76
2022/07/07 07:42:49;;;;;;;;;;;20.60;93.50;;;;;;5069736;28;20004;-75
2022/07/07 07:45:15;;;;;;;;;;;21.60;92.30;;;;;;5071111;28;19909;-76
2022/07/07 07:47:44;;;;;;;;;;;22.10;91.70;;;;;;5071679;28;19916;-75
2022/07/07 07:50:12;;;;;;;;;;;21.80;90.50;;;;;;5065198;28;20421;-75
2022/07/07 07:52:38;;;;;;;;;;;20.20;93.00;;;;;;5068931;28;19909;-75
2022/07/07 07:55:05;;;;;;;;;;;20.20;93.10;;;;;;5070598;28;20369;-75
2022/07/07 07:57:30;;;;;;;;;;;21.40;92.40;;;;;;5072027;28;20286;-76
2022/07/07 07:59:56;;;;;;;;;;;22.80;89.50;;;;;;5065333;28;19909;-75
2022/07/07 08:02:21;;;;;;;;;;;21.20;90.30;;;;;;5072876;28;19915;-75
2022/07/07 08:04:46;;;;;;;;;;;20.70;92.10;;;;;;5071988;28;19912;-74
2022/07/07 08:07:12;;;;;;;;;;;20.20;93.10;;;;;;5076647;28;20323;-75
2022/07/07 08:09:38;;;;;;;;;;;20.10;93.30;;;;;;5066635;28;20384;-75
2022/07/07 08:12:03;;;;;;;;;;;19.90;93.60;;;;;;5070119;28;19944;-75
2022/07/07 08:14:29;;;;;;;;;;;19.70;93.30;;;;;;5067149;28;20346;-75
2022/07/07 08:16:55;;;;;;;;;;;19.40;94.90;;;;;;5069517;28;20043;-76
2022/07/07 08:19:20;;;;;;;;;;;19.10;94.80;;;;;;5069276;28;19915;-76
2022/07/07 08:21:50;;;;;;;;;;;19.00;94.60;;;;;;5070456;28;19915;-76
2022/07/07 08:24:16;;;;;;;;;;;18.90;95.50;;;;;;5070139;28;19924;-75
2022/07/07 08:26:42;;;;;;;;;;;18.80;95.30;;;;;;5069206;28;20424;-75
2022/07/07 08:29:07;;;;;;;;;;;18.90;95.80;;;;;;5076312;28;19908;-75
2022/07/07 08:31:33;;;;;;;;;;;18.90;95.00;;;;;;5070040;28;19912;-75
2022/07/07 08:33:59;;;;;;;;;;;18.80;95.80;;;;;;5069979;28;19915;-76
2022/07/07 08:36:24;;;;;;;;;;;18.50;95.30;;;;;;5071006;28;19954;-75
2022/07/07 08:38:50;;;;;;;;;;;18.20;95.90;;;;;;5070730;28;20358;-75
2022/07/07 08:41:16;;;;;;;;;;;18.10;96.10;;;;;;5070486;28;19909;-75
2022/07/07 08:43:41;;;;;;;;;;;18.20;96.30;;;;;;5070145;28;19916;-76
2022/07/07 08:46:08;;;;;;;;;;;18.40;96.30;;;;;;5070945;28;20389;-75
2022/07/07 08:48:34;;;;;;;;;;;18.50;95.50;;;;;;5069357;28;20369;-74
2022/07/07 08:51:00;;;;;;;;;;;18.50;96.70;;;;;;5067932;28;19908;-77
2022/07/07 08:53:27;;;;;;;;;;;18.50;96.10;;;;;;5069785;28;20008;-76
2022/07/07 08:55:53;;;;;;;;;;;19.00;96.10;;;;;;5070896;28;19920;-75
2022/07/07 08:58:19;;;;;;;;;;;19.60;94.70;;;;;;5070550;28;19916;-75
2022/07/07 09:00:44;;;;;;;;;;;19.80;95.00;;;;;;5070609;28;19952;-76
2022/07/07 09:03:10;;;;;;;;;;;20.10;94.20;;;;;;5069384;28;19952;-76
2022/07/07 09:05:38;;;;;;;;;;;20.30;94.60;;;;;;5072501;28;19912;-77
2022/07/07 09:08:16;;;;;;;;;;;20.20;94.60;;;;;;5070047;28;19913;-76
2022/07/07 09:10:42;;;;;;;;;;;19.80;94.40;;;;;;5069118;28;20261;-77
2022/07/07 09:13:26;;;;;;;;;;;19.80;94.80;;;;;;5069222;28;19962;-76
2022/07/07 09:15:52;;;;;;;;;;;21.30;94.20;;;;;;5078558;28;19936;-75
2022/07/07 09:18:37;;;;;;;;;;;23.20;90.50;;;;;;5075041;28;20003;-75
2022/07/07 09:21:07;;;;;;;;;;;23.30;91.00;;;;;;5068112;28;20047;-75
2022/07/07 09:23:33;;;;;;;;;;;23.70;91.10;;;;;;5071434;28;20299;-76
2022/07/07 09:25:59;;;;;;;;;;;23.50;88.10;;;;;;5072341;28;20003;-75
2022/07/07 09:28:26;;;;;;;;;;;23.90;89.90;;;;;;5072842;28;19909;-76
2022/07/07 09:30:52;;;;;;;;;;;24.70;88.20;;;;;;5073790;28;19915;-76
2022/07/07 09:33:25;;;;;;;;;;;23.90;87.50;;;;;;5071701;28;19908;-75
2022/07/07 09:38:37;;;;;;;;;;;22.50;91.40;;;;;;5071129;28;19961;-75
2022/07/07 09:41:08;;;;;;;;;;;23.70;90.70;;;;;;5072685;28;20412;-77
2022/07/07 09:43:51;;;;;;;;;;;23.40;91.00;;;;;;5072909;28;19973;-76
2022/07/07 09:46:22;;;;;;;;;;;22.30;91.50;;;;;;5073345;28;19919;-75
2022/07/07 09:48:48;;;;;;;;;;;20.80;92.70;;;;;;5073878;28;20019;-76
2022/07/07 09:51:13;;;;;;;;;;;19.80;93.70;;;;;;5075284;28;20062;-76
2022/07/07 09:53:52;;;;;;;;;;;19.30;94.70;;;;;;5073658;28;19968;-76
2022/07/07 09:56:19;;;;;;;;;;;18.70;95.40;;;;;;5068347;28;19963;-75
2022/07/07 09:58:44;;;;;;;;;;;18.50;96.00;;;;;;5074251;28;19916;-76
2022/07/07 10:01:11;;;;;;;;;;;18.60;96.60;;;;;;5072342;28;19908;-76
2022/07/07 10:03:36;;;;;;;;;;;18.80;96.60;;;;;;5077623;28;19919;-75
2022/07/07 10:06:02;;;;;;;;;;;19.00;96.50;;;;;;5068267;28;19913;-76
2022/07/07 10:08:30;;;;;;;;;;;19.00;96.60;;;;;;5072505;28;20393;-76
2022/07/07 10:10:56;;;;;;;;;;;19.30;96.50;;;;;;5067161;28;19961;-76
2022/07/07 10:13:21;;;;;;;;;;;19.10;97.00;;;;;;5072644;28;20003;-76
2022/07/07 10:15:47;;;;;;;;;;;19.00;97.30;;;;;;5073394;28;19912;-76
2022/07/07 10:18:12;;;;;;;;;;;19.00;96.60;;;;;;5073065;28;20430;-76
2022/07/07 10:20:38;;;;;;;;;;;19.00;97.10;;;;;;5072724;28;19909;-76
2022/07/07 10:23:04;;;;;;;;;;;19.00;97.70;;;;;;5071106;28;19913;-76
2022/07/07 10:25:29;;;;;;;;;;;19.00;96.70;;;;;;5067127;28;19924;-76
2022/07/07 10:27:55;;;;;;;;;;;18.90;96.70;;;;;;5066971;28;19908;-75
2022/07/07 10:30:29;;;;;;;;;;;19.10;96.90;;;;;;5070431;28;21353;-76
2022/07/07 10:32:56;;;;;;;;;;;19.20;97.30;;;;;;5072509;28;20395;-76
2022/07/07 10:35:23;;;;;;;;;;;19.40;96.80;;;;;;5069471;28;20289;-75
2022/07/07 10:37:52;;;;;;;;;;;19.90;96.40;;;;;;5072702;28;20332;-76
2022/07/07 10:40:26;;;;;;;;;;;20.90;95.20;;;;;;5071165;28;19919;-75
2022/07/07 10:43:10;;;;;;;;;;;21.10;95.00;;;;;;5065651;28;19962;-76
2022/07/07 10:45:39;;;;;;;;;;;21.00;95.10;;;;;;5068288;28;19935;-75
2022/07/07 10:48:08;;;;;;;;;;;21.10;93.90;;;;;;5072449;28;20003;-75
2022/07/07 10:50:34;;;;;;;;;;;20.40;94.10;;;;;;5071115;28;19999;-75
2022/07/07 10:52:59;;;;;;;;;;;20.60;94.20;;;;;;5078777;28;19987;-75
2022/07/07 10:55:44;;;;;;;;;;;21.00;94.80;;;;;;5071824;28;19908;-76
2022/07/07 10:58:09;;;;;;;;;;;21.40;95.10;;;;;;5072442;28;19915;-75
2022/07/07 11:00:34;;;;;;;;;;;21.20;94.10;;;;;;5072287;28;19913;-76
2022/07/07 11:03:06;;;;;;;;;;;20.50;95.70;;;;;;5071857;28;19962;-76
2022/07/07 11:05:32;;;;;;;;;;;20.30;95.90;;;;;;5067136;28;21776;-76
2022/07/07 11:08:06;;;;;;;;;;;20.00;96.10;;;;;;5071839;28;20390;-76
2022/07/07 11:10:46;;;;;;;;;;;19.70;95.70;;;;;;5072496;28;19944;-75
2022/07/07 11:13:14;;;;;;;;;;;19.60;96.20;;;;;;5071476;28;19908;-76
2022/07/07 11:15:40;;;;;;;;;;;19.80;97.10;;;;;;5072154;28;19909;-76
2022/07/07 11:18:05;;;;;;;;;;;19.80;96.60;;;;;;5072280;28;20068;-76
2022/07/07 11:20:31;;;;;;;;;;;19.60;96.30;;;;;;5072200;28;19915;-76
2022/07/07 11:23:06;;;;;;;;;;;19.40;96.70;;;;;;5071930;28;19982;-75
2022/07/07 11:25:32;;;;;;;;;;;19.40;97.70;;;;;;5074446;28;19919;-76
2022/07/07 11:27:57;;;;;;;;;;;19.20;97.50;;;;;;5073963;28;19909;-76
2022/07/07 11:30:24;;;;;;;;;;;19.00;97.20;;;;;;5070591;28;19930;-76
2022/07/07 11:32:49;;;;;;;;;;;18.90;97.80;;;;;;5071542;28;19913;-76
2022/07/07 11:35:15;;;;;;;;;;;19.00;98.60;;;;;;5069192;28;19915;-75
2022/07/07 11:37:42;;;;;;;;;;;19.00;98.90;;;;;;5077202;28;20258;-76
2022/07/07 11:40:14;;;;;;;;;;;19.20;97.50;;;;;;5071256;28;19999;-75
2022/07/07 11:42:40;;;;;;;;;;;19.70;97.40;;;;;;5071108;28;19909;-76
2022/07/07 11:45:23;;;;;;;;;;;20.00;97.00;;;;;;5071032;28;20277;-76
2022/07/07 11:47:49;;;;;;;;;;;20.10;97.30;;;;;;5071414;28;20387;-76
2022/07/07 11:50:15;;;;;;;;;;;20.10;95.60;;;;;;5069797;28;19909;-76
2022/07/07 11:52:46;;;;;;;;;;;19.90;97.10;;;;;;5074697;28;19999;-75
2022/07/07 11:55:14;;;;;;;;;;;19.60;97.30;;;;;;5070117;28;19908;-76
2022/07/07 11:57:39;;;;;;;;;;;19.40;98.90;;;;;;5071304;28;19969;-76
2022/07/07 12:00:18;;;;;;;;;;;19.30;98.60;;;;;;5071218;28;20374;-76
2022/07/07 12:02:45;;;;;;;;;;;19.20;99.00;;;;;;5067943;28;19956;-76
2022/07/07 12:05:11;;;;;;;;;;;19.10;98.10;;;;;;5067529;28;20396;-76
2022/07/07 12:07:37;;;;;;;;;;;19.20;97.40;;;;;;5072765;28;19916;-76
2022/07/07 12:10:03;;;;;;;;;;;19.30;97.00;;;;;;5069741;28;20159;-76
2022/07/07 12:12:28;;;;;;;;;;;19.20;96.00;;;;;;5070837;28;20276;-76
2022/07/07 12:14:54;;;;;;;;;;;19.20;97.30;;;;;;5070006;28;19961;-76
2022/07/07 12:17:33;;;;;;;;;;;19.30;96.70;;;;;;5070656;28;19912;-75
2022/07/07 12:19:58;;;;;;;;;;;19.30;96.60;;;;;;5070665;28;19919;-75
2022/07/07 12:22:34;;;;;;;;;;;19.40;96.10;;;;;;5068487;28;19908;-76
2022/07/07 12:25:04;;;;;;;;;;;19.50;95.00;;;;;;5066946;28;19952;-76
2022/07/07 12:27:30;;;;;;;;;;;19.90;96.90;;;;;;5070194;28;19912;-76
2022/07/07 12:29:59;;;;;;;;;;;20.10;96.20;;;;;;5070352;28;20281;-76
2022/07/07 12:32:25;;;;;;;;;;;19.60;95.60;;;;;;5070478;28;19909;-76
2022/07/07 12:34:51;;;;;;;;;;;19.60;95.20;;;;;;5070099;28;19919;-76
2022/07/07 12:37:16;;;;;;;;;;;19.50;95.80;;;;;;5068276;28;20609;-75
2022/07/07 12:39:42;;;;;;;;;;;19.40;96.30;;;;;;5070547;28;19908;-76
2022/07/07 12:42:08;;;;;;;;;;;19.30;96.20;;;;;;5070028;28;19916;-76
2022/07/07 12:44:35;;;;;;;;;;;19.10;96.90;;;;;;5069514;28;19962;-76
2022/07/07 12:47:01;;;;;;;;;;;19.30;96.90;;;;;;5069081;28;20003;-76
2022/07/07 12:49:26;;;;;;;;;;;19.40;95.80;;;;;;5069197;28;19952;-76
2022/07/07 12:51:53;;;;;;;;;;;19.70;95.80;;;;;;5072633;28;19924;-75
2022/07/07 12:54:21;;;;;;;;;;;20.00;96.40;;;;;;5069606;28;19913;-75
2022/07/07 12:56:46;;;;;;;;;;;20.10;95.20;;;;;;5069750;28;19909;-75
2022/07/07 12:59:18;;;;;;;;;;;20.00;95.40;;;;;;5070307;28;19919;-76
2022/07/07 13:01:48;;;;;;;;;;;19.90;95.60;;;;;;5070288;28;20346;-75
2022/07/07 13:04:13;;;;;;;;;;;19.80;95.20;;;;;;5069791;28;19965;-75
2022/07/07 13:06:39;;;;;;;;;;;19.80;95.70;;;;;;5068883;28;19916;-75
2022/07/07 13:09:04;;;;;;;;;;;19.70;95.80;;;;;;5070417;28;20362;-76
2022/07/07 13:11:31;;;;;;;;;;;19.80;96.00;;;;;;5069966;28;19956;-76
2022/07/07 13:13:56;;;;;;;;;;;19.90;95.90;;;;;;5068749;28;19908;-76
2022/07/07 13:16:22;;;;;;;;;;;20.00;95.40;;;;;;5069822;28;20208;-75
2022/07/07 13:18:47;;;;;;;;;;;20.50;96.20;;;;;;5070225;28;20365;-75
2022/07/07 13:21:13;;;;;;;;;;;20.50;94.60;;;;;;5069843;28;20003;-75
2022/07/07 13:23:38;;;;;;;;;;;20.00;95.10;;;;;;5069628;28;20258;-76
2022/07/07 13:26:05;;;;;;;;;;;19.90;94.30;;;;;;5065578;28;19969;-76
2022/07/07 13:28:30;;;;;;;;;;;20.00;94.70;;;;;;5069801;28;19978;-76
2022/07/07 13:30:56;;;;;;;;;;;20.30;94.80;;;;;;5068920;28;20369;-76
2022/07/07 13:33:22;;;;;;;;;;;20.90;94.00;;;;;;5069180;28;19909;-76
2022/07/07 13:35:47;;;;;;;;;;;20.60;93.90;;;;;;5066835;28;20434;-76
2022/07/07 13:38:13;;;;;;;;;;;20.60;95.10;;;;;;5069444;28;19936;-76
2022/07/07 13:40:39;;;;;;;;;;;20.60;94.50;;;;;;5070040;28;20190;-76
2022/07/07 13:43:05;;;;;;;;;;;20.40;94.20;;;;;;5069062;28;19912;-77
2022/07/07 13:45:31;;;;;;;;;;;20.60;94.20;;;;;;5069993;28;19915;-76
2022/07/07 13:47:57;;;;;;;;;;;20.50;95.40;;;;;;5068570;28;19908;-76
2022/07/07 13:50:22;;;;;;;;;;;20.40;95.10;;;;;;5067937;28;19948;-76
2022/07/07 13:52:49;;;;;;;;;;;20.50;95.20;;;;;;5068870;28;19913;-76
2022/07/07 13:55:14;;;;;;;;;;;20.10;95.30;;;;;;5068239;28;19909;-76
2022/07/07 13:57:40;;;;;;;;;;;20.00;95.20;;;;;;5069653;28;19919;-76
2022/07/07 14:00:06;;;;;;;;;;;20.20;95.60;;;;;;5069603;28;19909;-76
2022/07/07 14:02:31;;;;;;;;;;;20.50;95.80;;;;;;5068697;28;19916;-76
2022/07/07 14:04:57;;;;;;;;;;;20.40;95.00;;;;;;5067312;28;19909;-76
2022/07/07 14:07:22;;;;;;;;;;;20.40;95.80;;;;;;5072663;28;19922;-78
2022/07/07 14:09:48;;;;;;;;;;;20.40;96.70;;;;;;5073362;28;19908;-76
2022/07/07 14:12:14;;;;;;;;;;;20.40;95.90;;;;;;5072713;28;19909;-76
2022/07/07 14:14:39;;;;;;;;;;;20.10;96.00;;;;;;5072697;28;19931;-76